createdAt,value
2023-03-17T00:00:11.846Z,6.99
2023-03-17T00:02:51.376Z,6.97
2023-03-17T00:05:49.615Z,7.07
2023-03-17T00:08:28.639Z,7.03
2023-03-17T00:11:07.935Z,6.91
2023-03-17T00:13:37.550Z,7.00
2023-03-17T00:16:22.404Z,7.03
2023-03-17T00:18:54.101Z,6.96
2023-03-17T00:21:42.160Z,6.99
2023-03-17T00:24:17.513Z,7.09
2023-03-17T00:26:59.599Z,7.14
2023-03-17T00:29:40.801Z,7.09
2023-03-17T00:32:29.979Z,6.99
2023-03-17T00:35:01.329Z,7.16
2023-03-17T00:37:53.720Z,7.20
2023-03-17T00:46:38.705Z,6.94
2023-03-17T00:49:41.058Z,6.88
2023-03-17T00:52:16.761Z,6.88
2023-03-17T00:54:55.168Z,6.73
2023-03-17T00:57:34.358Z,6.88
2023-03-17T01:00:12.879Z,6.84
2023-03-17T01:02:46.986Z,6.77
2023-03-17T01:05:25.302Z,6.62
2023-03-17T01:08:01.438Z,6.79
2023-03-17T01:10:44.354Z,6.71
2023-03-17T01:13:21.173Z,6.64
2023-03-17T01:16:06.787Z,6.79
2023-03-17T01:18:35.228Z,6.68
2023-03-17T01:21:13.877Z,6.64
2023-03-17T01:23:48.737Z,6.56
2023-03-17T01:26:25.708Z,6.63
2023-03-17T01:29:22.467Z,6.62
2023-03-17T01:32:11.977Z,6.80
2023-03-17T01:34:42.508Z,6.76
2023-03-17T01:37:21.094Z,6.64
2023-03-17T01:40:01.610Z,6.76
2023-03-17T01:42:45.841Z,6.73
2023-03-17T01:46:08.356Z,6.87
2023-03-17T01:48:54.409Z,6.85
2023-03-17T01:51:51.243Z,6.86
2023-03-17T01:57:33.451Z,6.88
2023-03-17T02:00:21.911Z,6.77
2023-03-17T02:03:03.201Z,6.62
2023-03-17T02:05:52.967Z,6.58
2023-03-17T02:08:30.863Z,6.77
2023-03-17T02:11:14.316Z,6.77
2023-03-17T02:13:45.009Z,6.57
2023-03-17T02:16:53.084Z,6.72
2023-03-17T02:19:22.434Z,6.72
2023-03-17T02:22:05.436Z,6.61
2023-03-17T02:24:45.118Z,6.72
2023-03-17T02:27:29.805Z,6.66
2023-03-17T02:30:29.286Z,6.66
2023-03-17T02:33:17.112Z,6.47
2023-03-17T02:35:55.946Z,6.59
2023-03-17T02:38:32.195Z,6.43
2023-03-17T02:41:23.126Z,6.37
2023-03-17T02:44:07.360Z,6.37
2023-03-17T02:46:47.874Z,6.44
2023-03-17T02:49:30.552Z,6.37
2023-03-17T02:52:02.049Z,6.33
2023-03-17T02:54:41.274Z,6.37
2023-03-17T02:57:15.390Z,6.14
2023-03-17T02:59:51.189Z,6.33
2023-03-17T03:02:20.455Z,6.18
2023-03-17T03:04:59.011Z,6.19
2023-03-17T03:07:40.032Z,6.14
2023-03-17T03:10:20.134Z,6.16
2023-03-17T03:12:50.094Z,6.19
2023-03-17T03:15:28.761Z,6.09
2023-03-17T03:18:03.458Z,6.19
2023-03-17T03:20:48.769Z,6.20
2023-03-17T03:23:32.716Z,6.27
2023-03-17T03:26:13.189Z,6.29
2023-03-17T03:28:51.981Z,6.15
2023-03-17T03:31:44.504Z,6.21
2023-03-17T03:34:34.055Z,6.15
2023-03-17T03:37:11.968Z,6.27
2023-03-17T03:39:42.836Z,6.36
2023-03-17T03:42:20.944Z,6.22
2023-03-17T03:44:57.221Z,6.25
2023-03-17T03:47:44.080Z,6.33
2023-03-17T03:50:17.408Z,6.29
2023-03-17T03:52:53.047Z,6.28
2023-03-17T03:55:37.859Z,6.20
2023-03-17T03:58:21.063Z,6.36
2023-03-17T04:00:58.543Z,6.28
2023-03-17T04:03:32.496Z,6.41
2023-03-17T04:08:35.242Z,6.57
2023-03-17T04:11:15.692Z,6.67
2023-03-17T04:14:05.379Z,6.68
2023-03-17T04:19:26.463Z,6.70
2023-03-17T04:25:17.134Z,6.79
2023-03-17T04:28:00.371Z,6.79
2023-03-17T04:30:47.068Z,6.58
2023-03-17T04:33:26.106Z,6.67
2023-03-17T04:36:11.596Z,6.60
2023-03-17T04:38:53.220Z,6.78
2023-03-17T04:44:12.249Z,6.73
2023-03-17T04:46:52.878Z,6.76
2023-03-17T04:49:34.875Z,6.69
2023-03-17T04:52:31.477Z,6.56
2023-03-17T04:55:16.456Z,6.66
2023-03-17T04:57:54.251Z,6.61
2023-03-17T05:00:24.826Z,6.63
2023-03-17T05:03:02.016Z,6.62
2023-03-17T05:05:41.763Z,6.61
2023-03-17T05:08:17.389Z,6.65
2023-03-17T05:10:56.352Z,6.59
2023-03-17T05:13:32.455Z,6.51
2023-03-17T05:16:11.214Z,6.52
2023-03-17T05:18:43.200Z,6.42
2023-03-17T05:21:19.781Z,6.33
2023-03-17T05:23:56.597Z,6.38
2023-03-17T05:26:36.170Z,6.34
2023-03-17T05:29:18.493Z,6.37
2023-03-17T05:31:58.604Z,6.18
2023-03-17T05:34:33.925Z,6.11
2023-03-17T05:37:12.419Z,6.23
2023-03-17T05:39:57.786Z,6.22
2023-03-17T05:42:52.393Z,6.23
2023-03-17T05:45:38.975Z,6.28
2023-03-17T05:48:16.563Z,6.05
2023-03-17T05:50:45.314Z,6.05
2023-03-17T05:53:20.046Z,6.13
2023-03-17T05:56:00.385Z,6.23
2023-03-17T05:58:36.726Z,6.06
2023-03-17T06:01:08.614Z,6.27
2023-03-17T06:03:51.488Z,6.27
2023-03-17T06:06:26.231Z,6.10
2023-03-17T06:09:05.861Z,6.27
2023-03-17T06:11:38.620Z,6.32
2023-03-17T06:14:17.061Z,6.21
2023-03-17T06:16:44.862Z,6.33
2023-03-17T06:19:19.030Z,6.33
2023-03-17T06:21:46.012Z,6.52
2023-03-17T06:24:20.302Z,6.47
2023-03-17T06:26:54.129Z,6.54
2023-03-17T06:29:35.092Z,6.63
2023-03-17T06:32:17.284Z,6.62
2023-03-17T06:34:53.264Z,6.75
2023-03-17T06:37:21.418Z,6.82
2023-03-17T06:39:48.776Z,6.83
2023-03-17T06:42:22.117Z,6.80
2023-03-17T06:44:52.472Z,6.96
2023-03-17T06:47:26.200Z,7.05
2023-03-17T06:50:13.418Z,7.26
2023-03-17T06:52:54.081Z,7.35
2023-03-17T06:55:21.735Z,7.44
2023-03-17T06:57:55.265Z,7.51
2023-03-17T07:00:23.259Z,7.55
2023-03-17T07:02:57.110Z,7.66
2023-03-17T07:05:24.284Z,7.65
2023-03-17T07:07:51.240Z,7.61
2023-03-17T07:10:25.227Z,7.68
2023-03-17T07:12:59.118Z,7.91
2023-03-17T07:15:26.227Z,8.00
2023-03-17T07:17:59.056Z,8.14
2023-03-17T07:20:33.064Z,8.29
2023-03-17T07:23:00.982Z,8.55
2023-03-17T07:25:35.106Z,8.61
2023-03-17T07:28:03.381Z,8.64
2023-03-17T07:30:44.397Z,8.54
2023-03-17T07:33:11.605Z,8.67
2023-03-17T07:35:45.225Z,8.90
2023-03-17T07:38:12.214Z,8.96
2023-03-17T07:40:46.374Z,9.07
2023-03-17T07:43:24.663Z,9.29
2023-03-17T07:46:03.550Z,9.28
2023-03-17T07:48:33.765Z,9.38
2023-03-17T07:51:07.141Z,9.58
2023-03-17T07:53:41.173Z,9.68
2023-03-17T07:56:16.380Z,9.74
2023-03-17T07:58:52.715Z,9.83
2023-03-17T08:01:25.534Z,9.82
2023-03-17T08:04:00.438Z,9.85
2023-03-17T08:06:47.869Z,10.01
2023-03-17T08:13:04.401Z,10.05
2023-03-17T08:15:51.453Z,10.19
2023-03-17T08:18:28.233Z,10.41
2023-03-17T08:21:03.174Z,10.47
2023-03-17T08:24:04.699Z,10.50
2023-03-17T08:26:35.380Z,10.61
2023-03-17T08:32:14.413Z,10.79
2023-03-17T08:35:04.615Z,10.93
2023-03-17T08:37:40.305Z,10.97
2023-03-17T08:40:47.296Z,10.93
2023-03-17T08:43:23.908Z,10.96
2023-03-17T08:45:59.494Z,11.03
2023-03-17T08:54:37.675Z,11.09
2023-03-17T08:57:20.024Z,11.10
2023-03-17T09:00:30.928Z,11.32
2023-03-17T09:06:13.077Z,11.65
2023-03-17T09:09:07.065Z,11.82
2023-03-17T09:11:45.689Z,11.77
2023-03-17T09:14:57.686Z,11.91
2023-03-17T09:17:49.369Z,12.09
2023-03-17T09:20:39.175Z,12.12
2023-03-17T09:26:11.779Z,12.37
2023-03-17T09:29:12.025Z,12.80
2023-03-17T09:31:47.656Z,12.92
2023-03-17T09:34:27.218Z,13.22
2023-03-17T09:37:15.526Z,13.28
2023-03-17T09:40:11.252Z,13.15
2023-03-17T09:43:25.821Z,13.20
2023-03-17T09:47:00.780Z,13.42
2023-03-17T09:50:19.920Z,13.70
2023-03-17T09:53:00.072Z,13.85
2023-03-17T09:55:40.022Z,14.21
2023-03-17T09:58:34.407Z,14.40
2023-03-17T10:01:42.652Z,14.70
2023-03-17T10:10:39.283Z,14.53
2023-03-17T10:27:11.982Z,15.33
2023-03-17T10:30:03.096Z,15.34
2023-03-17T10:32:45.699Z,15.54
2023-03-17T10:35:32.918Z,15.72
2023-03-17T10:38:24.446Z,15.79
2023-03-17T10:41:28.572Z,15.62
2023-03-17T10:44:13.627Z,15.44
2023-03-17T10:47:01.655Z,15.52
2023-03-17T10:49:51.917Z,15.59
2023-03-17T10:52:38.645Z,15.65
2023-03-17T10:55:31.220Z,15.70
2023-03-17T10:58:18.719Z,15.56
2023-03-17T11:01:27.469Z,15.41
2023-03-17T11:04:12.430Z,15.21
2023-03-17T11:06:53.113Z,15.23
2023-03-17T11:09:39.507Z,15.30
2023-03-17T11:12:44.503Z,15.38
2023-03-17T11:18:29.005Z,15.27
2023-03-17T11:21:18.607Z,15.06
2023-03-17T11:24:21.453Z,15.31
2023-03-17T11:27:47.121Z,15.39
2023-03-17T11:30:47.561Z,15.72
2023-03-17T11:34:02.986Z,15.84
2023-03-17T11:36:58.695Z,16.11
2023-03-17T11:40:12.280Z,15.99
2023-03-17T11:42:59.789Z,15.67
2023-03-17T11:46:24.375Z,15.54
2023-03-17T11:49:36.337Z,15.76
2023-03-17T11:52:30.283Z,15.81
2023-03-17T11:55:48.793Z,15.63
2023-03-17T11:58:47.191Z,15.75
2023-03-17T12:01:36.238Z,15.98
2023-03-17T12:04:43.509Z,16.11
2023-03-17T12:07:59.608Z,16.25
2023-03-17T12:10:52.791Z,16.27
2023-03-17T12:14:17.262Z,16.22
2023-03-17T12:17:14.252Z,16.45
2023-03-17T12:20:30.982Z,16.52
2023-03-17T12:23:37.429Z,16.89
2023-03-17T12:26:35.577Z,17.06
2023-03-17T12:29:58.738Z,17.12
2023-03-17T12:33:36.753Z,17.54
2023-03-17T12:36:14.870Z,17.57
2023-03-17T12:38:53.216Z,17.58
2023-03-17T12:41:45.611Z,17.42
2023-03-17T12:44:25.720Z,17.10
2023-03-17T12:47:05.818Z,17.19
2023-03-17T12:50:39.988Z,17.32
2023-03-17T12:53:28.791Z,17.90
2023-03-17T12:56:31.924Z,18.17
2023-03-17T12:59:06.192Z,18.62
2023-03-17T13:01:46.655Z,18.82
2023-03-17T13:04:22.210Z,19.39
2023-03-17T13:07:30.732Z,19.68
2023-03-17T13:09:58.007Z,20.12
2023-03-17T13:13:12.385Z,20.25
2023-03-17T13:15:40.147Z,19.94
2023-03-17T13:18:22.990Z,19.64
2023-03-17T13:21:23.183Z,19.32
2023-03-17T13:24:30.508Z,19.19
2023-03-17T13:27:06.290Z,19.18
2023-03-17T13:29:39.379Z,19.09
2023-03-17T13:32:31.576Z,19.51
2023-03-17T13:35:18.993Z,19.54
2023-03-17T13:38:30.493Z,19.50
2023-03-17T13:41:09.158Z,19.24
2023-03-17T13:44:10.335Z,19.22
2023-03-17T13:46:50.297Z,18.85
2023-03-17T13:49:20.215Z,18.72
2023-03-17T13:52:19.463Z,18.42
2023-03-17T13:54:59.085Z,18.14
2023-03-17T13:57:33.526Z,17.99
2023-03-17T14:00:03.091Z,17.87
2023-03-17T14:02:49.508Z,17.88
2023-03-17T14:05:38.389Z,17.76
2023-03-17T14:08:12.035Z,17.90
2023-03-17T14:10:45.485Z,17.86
2023-03-17T14:13:25.936Z,17.94
2023-03-17T14:16:33.688Z,18.03
2023-03-17T14:19:17.961Z,17.98
2023-03-17T14:21:51.755Z,17.78
2023-03-17T14:24:24.818Z,17.73
2023-03-17T14:27:15.676Z,17.54
2023-03-17T14:29:43.774Z,17.48
2023-03-17T14:32:26.552Z,17.40
2023-03-17T14:34:59.171Z,17.19
2023-03-17T14:37:35.582Z,17.05
2023-03-17T14:40:02.781Z,16.99
2023-03-17T14:42:38.520Z,16.90
2023-03-17T14:45:09.573Z,16.85
2023-03-17T14:47:50.836Z,16.84
2023-03-17T14:50:35.816Z,16.75
2023-03-17T14:53:16.526Z,16.78
2023-03-17T14:55:44.767Z,16.67
2023-03-17T14:58:38.810Z,16.86
2023-03-17T15:04:07.139Z,16.84
2023-03-17T15:06:55.385Z,16.62
2023-03-17T15:09:41.722Z,16.55
2023-03-17T15:12:18.211Z,16.48
2023-03-17T15:14:53.667Z,16.44
2023-03-17T15:17:31.240Z,16.36
2023-03-17T15:20:13.099Z,16.27
2023-03-17T15:22:45.270Z,16.15
2023-03-17T15:25:45.974Z,16.23
2023-03-17T15:28:33.594Z,16.06
2023-03-17T15:31:20.870Z,16.12
2023-03-17T15:33:54.744Z,15.92
2023-03-17T15:36:32.162Z,15.88
2023-03-17T15:39:08.714Z,15.91
2023-03-17T15:41:45.883Z,15.87
2023-03-17T15:44:13.902Z,15.91
2023-03-17T15:46:48.690Z,15.79
2023-03-17T15:49:23.158Z,15.80
2023-03-17T15:51:58.958Z,15.69
2023-03-17T15:54:33.888Z,15.70
2023-03-17T15:57:02.036Z,15.65
2023-03-17T15:59:36.076Z,15.73
2023-03-17T16:02:39.273Z,15.59
2023-03-17T16:05:30.100Z,15.66
2023-03-17T16:08:01.027Z,15.61
2023-03-17T16:10:46.103Z,15.66
2023-03-17T16:13:14.209Z,15.44
2023-03-17T16:15:56.713Z,15.50
2023-03-17T16:18:47.959Z,15.50
2023-03-17T16:21:25.699Z,15.36
2023-03-17T16:30:31.756Z,15.23
2023-03-17T16:34:21.132Z,15.39
2023-03-17T16:40:06.053Z,15.28
2023-03-17T16:42:42.351Z,15.13
2023-03-17T16:45:18.961Z,15.22
2023-03-17T16:48:13.739Z,15.17
2023-03-17T16:50:52.155Z,14.97
2023-03-17T16:53:40.608Z,15.02
2023-03-17T16:56:35.078Z,15.04
2023-03-17T16:59:21.254Z,14.91
2023-03-17T17:02:24.536Z,14.84
2023-03-17T17:05:23.787Z,14.73
2023-03-17T17:08:02.273Z,14.79
2023-03-17T17:10:36.327Z,14.69
2023-03-17T17:13:16.646Z,14.63
2023-03-17T17:15:53.149Z,14.66
2023-03-17T17:18:37.731Z,14.46
2023-03-17T17:21:16.649Z,14.43
2023-03-17T17:23:47.359Z,14.36
2023-03-17T17:26:40.162Z,14.21
2023-03-17T17:29:54.258Z,14.33
2023-03-17T17:32:31.793Z,14.02
2023-03-17T17:35:09.026Z,13.93
2023-03-17T17:38:01.906Z,13.85
2023-03-17T17:40:47.120Z,13.75
2023-03-17T17:43:38.582Z,13.68
2023-03-17T17:46:30.525Z,13.51
2023-03-17T17:49:14.710Z,13.51
2023-03-17T17:51:50.993Z,13.29
2023-03-17T17:54:33.827Z,13.33
2023-03-17T17:57:48.021Z,13.13
2023-03-17T18:00:24.462Z,13.01
2023-03-17T18:03:13.229Z,12.96
2023-03-17T18:05:50.705Z,12.87
2023-03-17T18:08:27.674Z,12.82
2023-03-17T18:11:02.016Z,12.92
2023-03-17T18:13:45.131Z,12.62
2023-03-17T18:16:22.154Z,12.59
2023-03-17T18:19:06.061Z,12.70
2023-03-17T18:22:00.191Z,12.44
2023-03-17T18:24:35.164Z,12.37
2023-03-17T18:27:11.473Z,12.31
2023-03-17T18:30:14.404Z,12.30
2023-03-17T18:33:06.589Z,12.44
2023-03-17T18:36:08.159Z,12.39
2023-03-17T18:38:42.229Z,12.35
2023-03-17T18:41:24.924Z,12.07
2023-03-17T18:44:07.337Z,12.04
2023-03-17T18:46:44.396Z,11.98
2023-03-17T18:49:22.939Z,12.00
2023-03-17T18:52:08.983Z,12.04
2023-03-17T18:54:43.189Z,11.79
2023-03-17T18:57:30.162Z,11.77
2023-03-17T19:02:52.370Z,11.84
2023-03-17T19:05:51.617Z,11.88
2023-03-17T19:08:33.026Z,11.85
2023-03-17T19:11:05.433Z,11.83
2023-03-17T19:13:44.241Z,11.84
2023-03-17T19:16:18.538Z,11.69
2023-03-17T19:18:59.013Z,11.95
2023-03-17T19:21:40.240Z,12.08
2023-03-17T19:24:25.577Z,12.40
2023-03-17T19:26:56.634Z,12.62
2023-03-17T19:29:52.536Z,12.91
2023-03-17T19:32:31.260Z,13.13
2023-03-17T19:35:10.298Z,13.21
2023-03-17T19:37:44.035Z,13.30
2023-03-17T19:40:24.837Z,13.35
2023-03-17T19:43:09.300Z,13.41
2023-03-17T19:48:43.345Z,13.32
2023-03-17T19:54:25.086Z,13.28
2023-03-17T19:57:10.374Z,13.29
2023-03-17T19:59:43.215Z,13.30
2023-03-17T20:02:44.377Z,13.47
2023-03-17T20:05:32.928Z,13.25
2023-03-17T20:08:12.633Z,13.31
2023-03-17T20:11:07.118Z,13.29
2023-03-17T20:13:45.275Z,13.27
2023-03-17T20:16:30.101Z,13.44
2023-03-17T20:19:09.548Z,13.28
2023-03-17T20:21:58.941Z,13.17
2023-03-17T20:24:46.665Z,13.14
2023-03-17T20:27:19.306Z,13.28
2023-03-17T20:30:01.805Z,13.25
2023-03-17T20:32:50.464Z,13.19
2023-03-17T20:35:44.225Z,12.96
2023-03-17T20:38:24.918Z,12.85
2023-03-17T20:41:25.080Z,12.86
2023-03-17T20:44:05.170Z,13.01
2023-03-17T20:46:38.051Z,12.93
2023-03-17T20:49:19.477Z,12.81
2023-03-17T20:51:54.204Z,12.78
2023-03-17T20:54:30.345Z,12.78
2023-03-17T20:57:05.054Z,12.87
2023-03-17T20:59:47.894Z,12.65
2023-03-17T21:02:39.342Z,12.70
2023-03-17T21:05:32.805Z,12.79
2023-03-17T21:08:06.118Z,12.81
2023-03-17T21:11:04.271Z,12.73
2023-03-17T21:13:37.143Z,12.55
2023-03-17T21:16:29.234Z,12.73
2023-03-17T21:19:00.650Z,12.68
2023-03-17T21:21:35.066Z,12.55
2023-03-17T21:27:03.944Z,12.67
2023-03-17T21:29:43.092Z,12.59
2023-03-17T21:32:35.398Z,12.60
2023-03-17T21:35:24.093Z,12.82
2023-03-17T21:38:00.899Z,12.64
2023-03-17T21:40:54.901Z,12.64
2023-03-17T21:43:36.238Z,12.83
2023-03-17T21:46:07.175Z,12.84
2023-03-17T21:49:08.175Z,12.65
2023-03-17T21:51:42.469Z,12.67
2023-03-17T21:54:23.817Z,12.69
2023-03-17T21:56:56.442Z,12.70
2023-03-17T21:59:49.510Z,12.68
2023-03-17T22:02:23.594Z,12.57
2023-03-17T22:05:08.898Z,12.73
2023-03-17T22:07:41.166Z,12.70
2023-03-17T22:10:19.493Z,12.70
2023-03-17T22:13:08.248Z,12.50
2023-03-17T22:18:34.474Z,12.47
2023-03-17T22:21:08.904Z,12.47
2023-03-17T22:23:50.007Z,12.45
2023-03-17T22:26:33.095Z,12.51
2023-03-17T22:29:22.159Z,12.46
2023-03-17T22:32:10.235Z,12.48
2023-03-17T22:34:56.008Z,12.56
2023-03-17T22:37:44.434Z,12.47
2023-03-17T22:40:49.370Z,12.65
2023-03-17T22:43:31.066Z,12.43
2023-03-17T22:49:24.831Z,12.40
2023-03-17T22:52:03.481Z,12.40
2023-03-17T22:54:47.922Z,12.51
2023-03-17T23:00:35.513Z,12.40
2023-03-17T23:06:20.886Z,12.28
2023-03-17T23:08:59.812Z,12.26
2023-03-17T23:11:45.024Z,12.44
2023-03-17T23:14:21.376Z,12.33
2023-03-17T23:16:58.716Z,12.21
2023-03-17T23:19:44.956Z,12.19
2023-03-17T23:22:16.803Z,12.19
2023-03-17T23:25:02.765Z,12.38
2023-03-17T23:27:46.322Z,12.18
2023-03-17T23:30:36.679Z,12.24
2023-03-17T23:33:30.629Z,12.16
2023-03-17T23:36:26.042Z,12.33
2023-03-17T23:38:57.468Z,12.34
2023-03-17T23:41:37.324Z,12.33
2023-03-17T23:44:09.258Z,12.22
2023-03-17T23:46:48.628Z,12.12
2023-03-17T23:49:31.646Z,12.31
2023-03-17T23:52:19.363Z,12.09
2023-03-17T23:55:01.749Z,12.32
2023-03-17T23:58:06.688Z,12.10
